sensor_id;sensor_type;location;lat;lon;timestamp;pressure;altitude;pressure_sealevel;temperature;humidity
81961;BME280;71462;50.650;6.888;2024-03-07T00:00:30;100537.47;;;5.32;58.94
81961;BME280;71462;50.650;6.888;2024-03-07T00:02:58;100536.31;;;5.28;59.11
81961;BME280;71462;50.650;6.888;2024-03-07T00:05:26;100539.53;;;5.19;58.82
81961;BME280;71462;50.650;6.888;2024-03-07T00:07:54;100529.84;;;5.24;59.18
81961;BME280;71462;50.650;6.888;2024-03-07T00:10:22;100537.09;;;5.17;59.53
81961;BME280;71462;50.650;6.888;2024-03-07T00:12:51;100534.09;;;5.14;58.95
81961;BME280;71462;50.650;6.888;2024-03-07T00:15:19;100530.34;;;4.91;58.63
81961;BME280;71462;50.650;6.888;2024-03-07T00:17:47;100538.03;;;4.51;60.85
81961;BME280;71462;50.650;6.888;2024-03-07T00:20:15;100538.03;;;4.81;60.47
81961;BME280;71462;50.650;6.888;2024-03-07T00:22:46;100534.03;;;4.90;59.72
81961;BME280;71462;50.650;6.888;2024-03-07T00:25:14;100541.41;;;4.40;60.98
81961;BME280;71462;50.650;6.888;2024-03-07T00:27:45;100541.41;;;4.40;61.74
81961;BME280;71462;50.650;6.888;2024-03-07T00:30:15;100538.84;;;4.33;61.22
81961;BME280;71462;50.650;6.888;2024-03-07T00:32:45;100540.16;;;4.42;61.01
81961;BME280;71462;50.650;6.888;2024-03-07T00:35:13;100539.78;;;4.57;60.11
81961;BME280;71462;50.650;6.888;2024-03-07T00:37:41;100541.78;;;4.25;60.67
81961;BME280;71462;50.650;6.888;2024-03-07T00:40:09;100548.19;;;4.18;61.65
81961;BME280;71462;50.650;6.888;2024-03-07T00:42:37;100545.81;;;4.09;61.86
81961;BME280;71462;50.650;6.888;2024-03-07T00:45:08;100537.97;;;4.21;60.58
81961;BME280;71462;50.650;6.888;2024-03-07T00:47:37;100539.94;;;4.26;60.91
81961;BME280;71462;50.650;6.888;2024-03-07T00:50:06;100542.72;;;4.31;60.18
81961;BME280;71462;50.650;6.888;2024-03-07T00:52:35;100538.25;;;4.31;59.31
81961;BME280;71462;50.650;6.888;2024-03-07T00:55:03;100534.16;;;4.35;59.57
81961;BME280;71462;50.650;6.888;2024-03-07T00:57:31;100539.22;;;4.37;59.83
81961;BME280;71462;50.650;6.888;2024-03-07T00:59:58;100536.72;;;4.24;60.00
81961;BME280;71462;50.650;6.888;2024-03-07T01:02:26;100528.41;;;4.38;59.46
81961;BME280;71462;50.650;6.888;2024-03-07T01:04:56;100528.94;;;4.47;59.06
81961;BME280;71462;50.650;6.888;2024-03-07T01:07:23;100527.16;;;4.23;59.93
81961;BME280;71462;50.650;6.888;2024-03-07T01:09:51;100524.97;;;4.20;59.75
81961;BME280;71462;50.650;6.888;2024-03-07T01:12:20;100522.44;;;4.06;60.01
81961;BME280;71462;50.650;6.888;2024-03-07T01:14:50;100512.22;;;4.10;60.13
81961;BME280;71462;50.650;6.888;2024-03-07T01:17:21;100509.75;;;4.15;59.02
81961;BME280;71462;50.650;6.888;2024-03-07T01:19:49;100509.75;;;4.15;59.97
81961;BME280;71462;50.650;6.888;2024-03-07T01:22:18;100506.25;;;4.33;58.79
81961;BME280;71462;50.650;6.888;2024-03-07T01:24:47;100500.84;;;4.46;58.63
81961;BME280;71462;50.650;6.888;2024-03-07T01:27:15;100505.25;;;4.52;58.22
81961;BME280;71462;50.650;6.888;2024-03-07T01:29:42;100503.75;;;4.56;58.47
81961;BME280;71462;50.650;6.888;2024-03-07T01:32:11;100499.97;;;4.64;57.48
81961;BME280;71462;50.650;6.888;2024-03-07T01:34:38;100503.09;;;4.72;56.68
81961;BME280;71462;50.650;6.888;2024-03-07T01:37:06;100507.53;;;4.79;55.63
81961;BME280;71462;50.650;6.888;2024-03-07T01:39:36;100499.13;;;4.82;55.41
81961;BME280;71462;50.650;6.888;2024-03-07T01:42:03;100497.03;;;4.84;55.14
81961;BME280;71462;50.650;6.888;2024-03-07T01:44:31;100499.88;;;4.70;55.52
81961;BME280;71462;50.650;6.888;2024-03-07T01:46:59;100500.06;;;4.57;56.68
81961;BME280;71462;50.650;6.888;2024-03-07T01:49:30;100502.00;;;4.50;56.93
81961;BME280;71462;50.650;6.888;2024-03-07T01:51:58;100501.19;;;4.50;56.17
81961;BME280;71462;50.650;6.888;2024-03-07T01:54:26;100498.47;;;4.56;55.95
81961;BME280;71462;50.650;6.888;2024-03-07T01:56:56;100500.31;;;4.67;55.04
81961;BME280;71462;50.650;6.888;2024-03-07T01:59:24;100495.72;;;4.74;55.59
81961;BME280;71462;50.650;6.888;2024-03-07T02:01:53;100500.00;;;4.76;55.80
81961;BME280;71462;50.650;6.888;2024-03-07T02:04:21;100492.06;;;4.76;54.97
81961;BME280;71462;50.650;6.888;2024-03-07T02:06:50;100490.09;;;4.71;54.27
81961;BME280;71462;50.650;6.888;2024-03-07T02:09:20;100489.16;;;4.65;54.61
81961;BME280;71462;50.650;6.888;2024-03-07T02:11:48;100484.66;;;4.66;54.87
81961;BME280;71462;50.650;6.888;2024-03-07T02:14:17;100487.75;;;4.63;54.70
81961;BME280;71462;50.650;6.888;2024-03-07T02:16:45;100474.41;;;4.58;54.93
81961;BME280;71462;50.650;6.888;2024-03-07T02:19:14;100477.28;;;4.56;54.53
81961;BME280;71462;50.650;6.888;2024-03-07T02:21:43;100466.56;;;4.51;53.93
81961;BME280;71462;50.650;6.888;2024-03-07T02:24:11;100472.88;;;4.50;54.11
81961;BME280;71462;50.650;6.888;2024-03-07T02:26:39;100472.53;;;4.47;54.81
81961;BME280;71462;50.650;6.888;2024-03-07T02:29:07;100471.34;;;4.42;54.96
81961;BME280;71462;50.650;6.888;2024-03-07T02:31:34;100468.41;;;4.32;54.57
81961;BME280;71462;50.650;6.888;2024-03-07T02:34:03;100473.19;;;4.24;55.07
81961;BME280;71462;50.650;6.888;2024-03-07T02:36:31;100466.81;;;4.13;55.55
81961;BME280;71462;50.650;6.888;2024-03-07T02:39:00;100463.97;;;4.15;55.25
81961;BME280;71462;50.650;6.888;2024-03-07T02:41:28;100463.28;;;4.01;56.62
81961;BME280;71462;50.650;6.888;2024-03-07T02:43:56;100463.69;;;3.86;56.80
81961;BME280;71462;50.650;6.888;2024-03-07T02:46:24;100451.91;;;3.64;57.63
81961;BME280;71462;50.650;6.888;2024-03-07T02:48:51;100459.41;;;3.48;58.63
81961;BME280;71462;50.650;6.888;2024-03-07T02:51:19;100456.25;;;3.58;57.98
81961;BME280;71462;50.650;6.888;2024-03-07T02:53:47;100455.88;;;3.55;59.12
81961;BME280;71462;50.650;6.888;2024-03-07T02:56:16;100455.00;;;3.61;57.86
81961;BME280;71462;50.650;6.888;2024-03-07T02:58:43;100458.25;;;3.63;58.30
81961;BME280;71462;50.650;6.888;2024-03-07T03:01:11;100454.53;;;3.45;58.96
81961;BME280;71462;50.650;6.888;2024-03-07T03:03:39;100461.63;;;3.52;59.08
81961;BME280;71462;50.650;6.888;2024-03-07T03:06:09;100453.69;;;3.52;59.29
81961;BME280;71462;50.650;6.888;2024-03-07T03:08:37;100453.25;;;3.55;58.41
81961;BME280;71462;50.650;6.888;2024-03-07T03:11:05;100454.78;;;3.62;58.24
81961;BME280;71462;50.650;6.888;2024-03-07T03:13:38;100454.50;;;3.70;57.20
81961;BME280;71462;50.650;6.888;2024-03-07T03:16:06;100451.47;;;3.67;58.85
81961;BME280;71462;50.650;6.888;2024-03-07T03:18:34;100452.06;;;3.69;57.77
81961;BME280;71462;50.650;6.888;2024-03-07T03:21:03;100448.47;;;3.63;56.80
81961;BME280;71462;50.650;6.888;2024-03-07T03:23:31;100448.53;;;3.57;57.58
81961;BME280;71462;50.650;6.888;2024-03-07T03:25:59;100439.44;;;3.53;57.23
81961;BME280;71462;50.650;6.888;2024-03-07T03:28:26;100440.91;;;3.48;57.45
81961;BME280;71462;50.650;6.888;2024-03-07T03:30:56;100445.22;;;3.43;57.92
81961;BME280;71462;50.650;6.888;2024-03-07T03:33:24;100431.25;;;3.36;58.06
81961;BME280;71462;50.650;6.888;2024-03-07T03:35:52;100432.22;;;3.41;56.58
81961;BME280;71462;50.650;6.888;2024-03-07T03:38:22;100431.84;;;3.38;56.67
81961;BME280;71462;50.650;6.888;2024-03-07T03:40:49;100434.13;;;3.34;57.35
81961;BME280;71462;50.650;6.888;2024-03-07T03:43:17;100430.69;;;3.34;57.39
81961;BME280;71462;50.650;6.888;2024-03-07T03:45:46;100434.78;;;3.30;57.41
81961;BME280;71462;50.650;6.888;2024-03-07T03:48:15;100428.69;;;3.29;57.78
81961;BME280;71462;50.650;6.888;2024-03-07T03:50:43;100434.34;;;3.33;57.80
81961;BME280;71462;50.650;6.888;2024-03-07T03:53:13;100429.22;;;3.38;57.93
81961;BME280;71462;50.650;6.888;2024-03-07T03:55:41;100424.88;;;3.43;56.42
81961;BME280;71462;50.650;6.888;2024-03-07T03:58:08;100424.72;;;3.38;57.00
81961;BME280;71462;50.650;6.888;2024-03-07T04:00:37;100425.38;;;3.34;56.60
81961;BME280;71462;50.650;6.888;2024-03-07T04:03:05;100420.25;;;3.21;58.05
81961;BME280;71462;50.650;6.888;2024-03-07T04:05:35;100420.09;;;3.15;57.61
81961;BME280;71462;50.650;6.888;2024-03-07T04:08:03;100421.38;;;3.06;57.77
81961;BME280;71462;50.650;6.888;2024-03-07T04:10:37;100423.81;;;3.08;57.71
81961;BME280;71462;50.650;6.888;2024-03-07T04:13:05;100419.09;;;3.10;56.89
81961;BME280;71462;50.650;6.888;2024-03-07T04:15:33;100416.25;;;3.11;57.05
81961;BME280;71462;50.650;6.888;2024-03-07T04:18:03;100422.31;;;3.18;57.23
81961;BME280;71462;50.650;6.888;2024-03-07T04:20:31;100423.63;;;3.28;56.39
81961;BME280;71462;50.650;6.888;2024-03-07T04:23:00;100422.75;;;3.34;56.83
81961;BME280;71462;50.650;6.888;2024-03-07T04:25:28;100418.28;;;3.34;56.27
81961;BME280;71462;50.650;6.888;2024-03-07T04:27:57;100416.88;;;3.32;56.27
81961;BME280;71462;50.650;6.888;2024-03-07T04:30:25;100419.72;;;3.30;55.58
81961;BME280;71462;50.650;6.888;2024-03-07T04:32:53;100415.84;;;3.33;56.23
81961;BME280;71462;50.650;6.888;2024-03-07T04:35:21;100411.38;;;3.33;55.09
81961;BME280;71462;50.650;6.888;2024-03-07T04:37:48;100408.94;;;3.32;54.65
81961;BME280;71462;50.650;6.888;2024-03-07T04:40:18;100416.06;;;3.31;54.43
81961;BME280;71462;50.650;6.888;2024-03-07T04:42:47;100418.13;;;3.29;54.79
81961;BME280;71462;50.650;6.888;2024-03-07T04:45:16;100415.03;;;3.32;54.96
81961;BME280;71462;50.650;6.888;2024-03-07T04:47:44;100410.34;;;3.34;55.53
81961;BME280;71462;50.650;6.888;2024-03-07T04:50:12;100412.97;;;3.34;53.76
81961;BME280;71462;50.650;6.888;2024-03-07T04:52:43;100401.97;;;3.19;54.49
81961;BME280;71462;50.650;6.888;2024-03-07T04:55:11;100407.13;;;3.07;54.78
81961;BME280;71462;50.650;6.888;2024-03-07T04:57:41;100401.72;;;3.02;54.26
81961;BME280;71462;50.650;6.888;2024-03-07T05:00:10;100408.22;;;3.00;54.17
81961;BME280;71462;50.650;6.888;2024-03-07T05:02:41;100412.72;;;2.99;55.55
81961;BME280;71462;50.650;6.888;2024-03-07T05:05:09;100410.28;;;2.98;56.17
81961;BME280;71462;50.650;6.888;2024-03-07T05:07:37;100418.22;;;2.98;56.11
81961;BME280;71462;50.650;6.888;2024-03-07T05:10:06;100416.00;;;2.95;56.72
81961;BME280;71462;50.650;6.888;2024-03-07T05:12:34;100407.13;;;2.89;55.55
81961;BME280;71462;50.650;6.888;2024-03-07T05:15:06;100409.16;;;2.87;55.93
81961;BME280;71462;50.650;6.888;2024-03-07T05:17:36;100405.13;;;2.84;55.79
81961;BME280;71462;50.650;6.888;2024-03-07T05:20:09;100409.78;;;2.82;56.06
81961;BME280;71462;50.650;6.888;2024-03-07T05:22:39;100412.84;;;2.79;56.25
81961;BME280;71462;50.650;6.888;2024-03-07T05:25:10;100412.84;;;2.79;55.39
81961;BME280;71462;50.650;6.888;2024-03-07T05:27:38;100410.63;;;2.83;56.08
81961;BME280;71462;50.650;6.888;2024-03-07T05:30:08;100414.44;;;2.87;56.05
81961;BME280;71462;50.650;6.888;2024-03-07T05:32:38;100410.13;;;2.93;56.55
81961;BME280;71462;50.650;6.888;2024-03-07T05:35:07;100413.72;;;2.98;56.85
81961;BME280;71462;50.650;6.888;2024-03-07T05:37:35;100412.50;;;3.01;56.08
81961;BME280;71462;50.650;6.888;2024-03-07T05:40:03;100412.44;;;3.07;56.23
81961;BME280;71462;50.650;6.888;2024-03-07T05:42:33;100414.63;;;3.10;56.78
81961;BME280;71462;50.650;6.888;2024-03-07T05:45:00;100412.34;;;3.14;56.68
81961;BME280;71462;50.650;6.888;2024-03-07T05:47:30;100414.16;;;3.20;56.87
81961;BME280;71462;50.650;6.888;2024-03-07T05:49:58;100410.25;;;3.23;57.43
81961;BME280;71462;50.650;6.888;2024-03-07T05:52:25;100420.41;;;3.26;57.13
81961;BME280;71462;50.650;6.888;2024-03-07T05:54:54;100417.25;;;3.35;56.88
81961;BME280;71462;50.650;6.888;2024-03-07T05:57:23;100420.47;;;3.37;57.06
81961;BME280;71462;50.650;6.888;2024-03-07T05:59:51;100417.16;;;3.42;56.73
81961;BME280;71462;50.650;6.888;2024-03-07T06:02:19;100417.50;;;3.52;56.68
81961;BME280;71462;50.650;6.888;2024-03-07T06:04:49;100416.69;;;3.52;57.31
81961;BME280;71462;50.650;6.888;2024-03-07T06:07:17;100411.41;;;3.52;57.62
81961;BME280;71462;50.650;6.888;2024-03-07T06:09:48;100413.75;;;3.60;57.02
81961;BME280;71462;50.650;6.888;2024-03-07T06:12:16;100413.44;;;3.68;57.00
81961;BME280;71462;50.650;6.888;2024-03-07T06:14:53;100409.91;;;3.74;56.99
81961;BME280;71462;50.650;6.888;2024-03-07T06:17:20;100410.94;;;3.73;57.49
81961;BME280;71462;50.650;6.888;2024-03-07T06:19:51;100409.47;;;3.77;57.38
81961;BME280;71462;50.650;6.888;2024-03-07T06:22:22;100402.78;;;3.74;57.47
81961;BME280;71462;50.650;6.888;2024-03-07T06:24:50;100408.16;;;3.68;58.30
81961;BME280;71462;50.650;6.888;2024-03-07T06:27:17;100410.34;;;3.71;57.72
81961;BME280;71462;50.650;6.888;2024-03-07T06:29:54;100404.97;;;3.77;57.73
81961;BME280;71462;50.650;6.888;2024-03-07T06:32:22;100409.91;;;3.74;58.45
81961;BME280;71462;50.650;6.888;2024-03-07T06:34:51;100404.03;;;3.72;58.25
81961;BME280;71462;50.650;6.888;2024-03-07T06:37:19;100405.06;;;3.71;58.87
81961;BME280;71462;50.650;6.888;2024-03-07T06:39:48;100406.75;;;3.84;57.94
81961;BME280;71462;50.650;6.888;2024-03-07T06:42:15;100412.03;;;3.84;58.43
81961;BME280;71462;50.650;6.888;2024-03-07T06:44:44;100403.53;;;3.82;58.71
81961;BME280;71462;50.650;6.888;2024-03-07T06:47:11;100405.41;;;3.93;58.17
81961;BME280;71462;50.650;6.888;2024-03-07T06:49:39;100405.91;;;4.01;58.05
81961;BME280;71462;50.650;6.888;2024-03-07T06:52:08;100405.00;;;4.07;58.19
81961;BME280;71462;50.650;6.888;2024-03-07T06:54:36;100403.16;;;4.08;58.77
81961;BME280;71462;50.650;6.888;2024-03-07T06:57:04;100404.31;;;4.12;58.03
81961;BME280;71462;50.650;6.888;2024-03-07T06:59:31;100399.03;;;4.12;58.71
81961;BME280;71462;50.650;6.888;2024-03-07T07:01:59;100391.66;;;4.02;59.11
81961;BME280;71462;50.650;6.888;2024-03-07T07:04:27;100393.09;;;4.17;59.02
81961;BME280;71462;50.650;6.888;2024-03-07T07:07:10;100391.88;;;4.01;59.20
81961;BME280;71462;50.650;6.888;2024-03-07T07:09:39;100398.75;;;4.20;59.20
81961;BME280;71462;50.650;6.888;2024-03-07T07:12:08;100403.13;;;4.26;59.62
81961;BME280;71462;50.650;6.888;2024-03-07T07:14:35;100398.34;;;4.35;59.93
81961;BME280;71462;50.650;6.888;2024-03-07T07:17:03;100400.78;;;4.36;60.71
81961;BME280;71462;50.650;6.888;2024-03-07T07:19:35;100391.72;;;4.14;60.52
81961;BME280;71462;50.650;6.888;2024-03-07T07:22:03;100389.81;;;4.03;61.13
81961;BME280;71462;50.650;6.888;2024-03-07T07:24:33;100383.94;;;4.31;61.04
81961;BME280;71462;50.650;6.888;2024-03-07T07:27:01;100393.13;;;4.58;60.71
81961;BME280;71462;50.650;6.888;2024-03-07T07:29:29;100387.59;;;4.71;60.68
81961;BME280;71462;50.650;6.888;2024-03-07T07:31:57;100390.97;;;4.90;59.91
81961;BME280;71462;50.650;6.888;2024-03-07T07:34:24;100394.84;;;4.76;59.75
81961;BME280;71462;50.650;6.888;2024-03-07T07:36:52;100389.56;;;4.76;60.07
81961;BME280;71462;50.650;6.888;2024-03-07T07:39:20;100386.59;;;4.84;60.30
81961;BME280;71462;50.650;6.888;2024-03-07T07:41:49;100391.31;;;4.94;59.89
81961;BME280;71462;50.650;6.888;2024-03-07T07:44:17;100383.13;;;5.07;60.56
81961;BME280;71462;50.650;6.888;2024-03-07T07:46:45;100388.44;;;5.07;61.31
81961;BME280;71462;50.650;6.888;2024-03-07T07:49:13;100386.44;;;5.38;61.01
81961;BME280;71462;50.650;6.888;2024-03-07T07:51:42;100385.78;;;5.07;62.41
81961;BME280;71462;50.650;6.888;2024-03-07T07:54:09;100389.13;;;5.26;61.90
81961;BME280;71462;50.650;6.888;2024-03-07T07:56:37;100391.19;;;4.89;62.88
81961;BME280;71462;50.650;6.888;2024-03-07T07:59:06;100389.66;;;4.28;66.11
81961;BME280;71462;50.650;6.888;2024-03-07T08:01:35;100393.75;;;3.64;68.52
81961;BME280;71462;50.650;6.888;2024-03-07T08:04:03;100392.34;;;3.79;68.46
81961;BME280;71462;50.650;6.888;2024-03-07T08:06:31;100394.97;;;3.98;68.15
81961;BME280;71462;50.650;6.888;2024-03-07T08:08:58;100399.03;;;3.64;69.96
81961;BME280;71462;50.650;6.888;2024-03-07T08:11:26;100400.66;;;3.46;70.82
81961;BME280;71462;50.650;6.888;2024-03-07T08:13:54;100392.00;;;3.21;72.09
81961;BME280;71462;50.650;6.888;2024-03-07T08:16:23;100394.78;;;3.44;69.98
81961;BME280;71462;50.650;6.888;2024-03-07T08:18:51;100389.88;;;3.48;68.80
81961;BME280;71462;50.650;6.888;2024-03-07T08:21:19;100387.09;;;3.61;68.04
81961;BME280;71462;50.650;6.888;2024-03-07T08:23:46;100384.63;;;3.78;67.25
81961;BME280;71462;50.650;6.888;2024-03-07T08:26:14;100383.75;;;3.84;66.82
81961;BME280;71462;50.650;6.888;2024-03-07T08:28:42;100382.63;;;3.92;66.44
81961;BME280;71462;50.650;6.888;2024-03-07T08:31:10;100377.59;;;3.72;65.43
81961;BME280;71462;50.650;6.888;2024-03-07T08:33:39;100376.72;;;3.60;65.59
81961;BME280;71462;50.650;6.888;2024-03-07T08:36:10;100384.16;;;3.99;66.16
81961;BME280;71462;50.650;6.888;2024-03-07T08:38:38;100366.75;;;4.22;64.55
81961;BME280;71462;50.650;6.888;2024-03-07T08:41:11;100373.25;;;3.77;64.82
81961;BME280;71462;50.650;6.888;2024-03-07T08:43:41;100373.25;;;4.07;64.84
81961;BME280;71462;50.650;6.888;2024-03-07T08:46:15;100377.56;;;4.20;63.01
81961;BME280;71462;50.650;6.888;2024-03-07T08:48:54;100373.16;;;4.44;62.47
81961;BME280;71462;50.650;6.888;2024-03-07T08:51:25;100365.53;;;4.89;60.88
81961;BME280;71462;50.650;6.888;2024-03-07T08:53:59;100362.84;;;5.01;59.57
81961;BME280;71462;50.650;6.888;2024-03-07T08:56:34;100362.44;;;5.56;59.09
81961;BME280;71462;50.650;6.888;2024-03-07T08:59:17;100364.78;;;5.41;56.90
81961;BME280;71462;50.650;6.888;2024-03-07T09:02:01;100360.50;;;5.51;56.04
81961;BME280;71462;50.650;6.888;2024-03-07T09:05:05;100362.91;;;5.41;54.31
81961;BME280;71462;50.650;6.888;2024-03-07T09:07:36;100358.25;;;5.20;56.76
81961;BME280;71462;50.650;6.888;2024-03-07T09:10:16;100355.72;;;5.13;55.70
81961;BME280;71462;50.650;6.888;2024-03-07T09:13:07;100347.78;;;4.90;56.32
81961;BME280;71462;50.650;6.888;2024-03-07T09:15:42;100359.44;;;4.35;54.53
81961;BME280;71462;50.650;6.888;2024-03-07T09:18:13;100360.38;;;4.11;56.41
81961;BME280;71462;50.650;6.888;2024-03-07T09:21:24;100352.91;;;4.08;55.59
81961;BME280;71462;50.650;6.888;2024-03-07T09:24:06;100349.97;;;4.28;55.43
81961;BME280;71462;50.650;6.888;2024-03-07T09:26:40;100344.22;;;4.31;53.30
81961;BME280;71462;50.650;6.888;2024-03-07T09:29:09;100352.13;;;4.49;54.74
81961;BME280;71462;50.650;6.888;2024-03-07T09:31:52;100352.03;;;4.67;53.99
81961;BME280;71462;50.650;6.888;2024-03-07T09:34:29;100344.75;;;4.51;55.91
81961;BME280;71462;50.650;6.888;2024-03-07T09:37:36;100352.13;;;4.72;53.81
81961;BME280;71462;50.650;6.888;2024-03-07T09:40:36;100357.44;;;4.49;54.31
81961;BME280;71462;50.650;6.888;2024-03-07T09:43:20;100363.34;;;4.03;54.35
81961;BME280;71462;50.650;6.888;2024-03-07T09:46:08;100352.44;;;4.11;54.01
81961;BME280;71462;50.650;6.888;2024-03-07T09:48:36;100359.44;;;4.05;53.97
81961;BME280;71462;50.650;6.888;2024-03-07T09:51:04;100351.91;;;4.21;54.29
81961;BME280;71462;50.650;6.888;2024-03-07T09:53:36;100351.63;;;4.40;54.04
81961;BME280;71462;50.650;6.888;2024-03-07T09:56:06;100350.53;;;4.48;54.56
81961;BME280;71462;50.650;6.888;2024-03-07T09:58:35;100354.78;;;4.61;54.22
81961;BME280;71462;50.650;6.888;2024-03-07T10:01:06;100357.53;;;4.54;53.42
81961;BME280;71462;50.650;6.888;2024-03-07T10:03:40;100355.25;;;4.69;52.50
81961;BME280;71462;50.650;6.888;2024-03-07T10:06:11;100346.50;;;5.04;50.88
81961;BME280;71462;50.650;6.888;2024-03-07T10:08:41;100343.97;;;5.21;51.05
81961;BME280;71462;50.650;6.888;2024-03-07T10:11:10;100351.91;;;5.09;50.46
81961;BME280;71462;50.650;6.888;2024-03-07T10:13:38;100344.44;;;5.18;51.36
81961;BME280;71462;50.650;6.888;2024-03-07T10:16:06;100348.78;;;5.24;50.02
81961;BME280;71462;50.650;6.888;2024-03-07T10:18:41;100349.13;;;5.27;51.17
81961;BME280;71462;50.650;6.888;2024-03-07T10:21:09;100343.81;;;5.27;51.13
81961;BME280;71462;50.650;6.888;2024-03-07T10:23:37;100338.09;;;4.95;50.13
81961;BME280;71462;50.650;6.888;2024-03-07T10:26:08;100335.59;;;5.52;51.44
81961;BME280;71462;50.650;6.888;2024-03-07T10:28:37;100336.66;;;5.80;49.75
81961;BME280;71462;50.650;6.888;2024-03-07T10:31:05;100336.59;;;5.91;49.19
81961;BME280;71462;50.650;6.888;2024-03-07T10:33:39;100321.63;;;6.14;47.33
81961;BME280;71462;50.650;6.888;2024-03-07T10:36:10;100318.28;;;6.07;48.15
81961;BME280;71462;50.650;6.888;2024-03-07T10:38:40;100324.28;;;5.57;49.35
81961;BME280;71462;50.650;6.888;2024-03-07T10:41:10;100322.31;;;5.12;50.06
81961;BME280;71462;50.650;6.888;2024-03-07T10:43:40;100330.22;;;5.24;50.47
81961;BME280;71462;50.650;6.888;2024-03-07T10:46:16;100328.81;;;5.73;50.03
81961;BME280;71462;50.650;6.888;2024-03-07T10:49:11;100323.47;;;6.13;49.72
81961;BME280;71462;50.650;6.888;2024-03-07T10:52:03;100323.09;;;5.93;47.53
81961;BME280;71462;50.650;6.888;2024-03-07T10:54:58;100322.41;;;6.14;48.49
81961;BME280;71462;50.650;6.888;2024-03-07T10:57:50;100316.38;;;6.19;48.62
81961;BME280;71462;50.650;6.888;2024-03-07T11:00:46;100319.97;;;5.96;47.73
81961;BME280;71462;50.650;6.888;2024-03-07T11:03:54;100309.09;;;5.81;48.02
81961;BME280;71462;50.650;6.888;2024-03-07T11:06:53;100305.44;;;6.15;48.72
81961;BME280;71462;50.650;6.888;2024-03-07T11:10:14;100299.69;;;6.35;48.55
81961;BME280;71462;50.650;6.888;2024-03-07T11:23:54;100282.34;;;6.16;48.58
81961;BME280;71462;50.650;6.888;2024-03-07T11:27:06;100283.84;;;6.23;48.68
81961;BME280;71462;50.650;6.888;2024-03-07T11:29:52;100277.94;;;6.38;47.89
81961;BME280;71462;50.650;6.888;2024-03-07T11:32:21;100280.25;;;6.68;49.30
81961;BME280;71462;50.650;6.888;2024-03-07T11:34:53;100274.00;;;6.57;48.74
81961;BME280;71462;50.650;6.888;2024-03-07T11:37:39;100272.94;;;6.75;48.14
81961;BME280;71462;50.650;6.888;2024-03-07T11:40:12;100262.19;;;6.48;48.29
81961;BME280;71462;50.650;6.888;2024-03-07T11:42:46;100263.94;;;6.59;48.59
81961;BME280;71462;50.650;6.888;2024-03-07T11:45:16;100264.22;;;6.24;47.93
81961;BME280;71462;50.650;6.888;2024-03-07T11:47:51;100262.16;;;6.15;49.07
81961;BME280;71462;50.650;6.888;2024-03-07T11:50:27;100263.53;;;6.17;49.36
81961;BME280;71462;50.650;6.888;2024-03-07T11:52:55;100262.44;;;6.30;48.44
81961;BME280;71462;50.650;6.888;2024-03-07T11:55:25;100252.81;;;5.95;49.08
81961;BME280;71462;50.650;6.888;2024-03-07T11:57:57;100247.38;;;6.19;47.77
81961;BME280;71462;50.650;6.888;2024-03-07T12:00:27;100242.84;;;6.03;48.46
81961;BME280;71462;50.650;6.888;2024-03-07T12:03:01;100236.94;;;5.67;49.50
81961;BME280;71462;50.650;6.888;2024-03-07T12:05:32;100239.16;;;5.87;50.35
81961;BME280;71462;50.650;6.888;2024-03-07T12:08:00;100231.94;;;6.33;49.07
81961;BME280;71462;50.650;6.888;2024-03-07T12:10:33;100232.66;;;6.11;49.64
81961;BME280;71462;50.650;6.888;2024-03-07T12:13:03;100231.38;;;5.68;49.47
81961;BME280;71462;50.650;6.888;2024-03-07T12:15:44;100225.81;;;6.15;50.58
81961;BME280;71462;50.650;6.888;2024-03-07T12:18:40;100224.22;;;6.31;49.02
81961;BME280;71462;50.650;6.888;2024-03-07T12:21:21;100218.72;;;6.54;49.52
81961;BME280;71462;50.650;6.888;2024-03-07T12:26:52;100216.97;;;6.26;49.75
81961;BME280;71462;50.650;6.888;2024-03-07T12:29:25;100214.41;;;6.32;50.31
81961;BME280;71462;50.650;6.888;2024-03-07T12:31:53;100211.00;;;6.36;50.27
81961;BME280;71462;50.650;6.888;2024-03-07T12:34:21;100201.06;;;6.65;50.38
81961;BME280;71462;50.650;6.888;2024-03-07T12:36:57;100203.19;;;6.46;48.83
81961;BME280;71462;50.650;6.888;2024-03-07T12:39:25;100201.03;;;6.43;49.87
81961;BME280;71462;50.650;6.888;2024-03-07T12:41:57;100196.13;;;6.74;48.54
81961;BME280;71462;50.650;6.888;2024-03-07T12:44:25;100188.88;;;6.69;50.00
81961;BME280;71462;50.650;6.888;2024-03-07T12:46:54;100182.78;;;7.12;49.43
81961;BME280;71462;50.650;6.888;2024-03-07T12:49:23;100180.22;;;7.22;49.54
81961;BME280;71462;50.650;6.888;2024-03-07T12:51:53;100182.91;;;7.28;48.87
81961;BME280;71462;50.650;6.888;2024-03-07T12:54:21;100169.97;;;6.87;49.08
81961;BME280;71462;50.650;6.888;2024-03-07T12:56:49;100172.94;;;6.69;49.61
81961;BME280;71462;50.650;6.888;2024-03-07T12:59:18;100171.78;;;6.82;48.95
81961;BME280;71462;50.650;6.888;2024-03-07T13:01:50;100166.22;;;6.83;49.51
81961;BME280;71462;50.650;6.888;2024-03-07T13:04:18;100165.72;;;6.86;49.07
81961;BME280;71462;50.650;6.888;2024-03-07T13:06:46;100162.13;;;6.54;49.70
81961;BME280;71462;50.650;6.888;2024-03-07T13:09:14;100160.41;;;6.65;49.77
81961;BME280;71462;50.650;6.888;2024-03-07T13:11:53;100159.66;;;6.47;48.95
81961;BME280;71462;50.650;6.888;2024-03-07T13:14:26;100162.50;;;6.84;49.40
81961;BME280;71462;50.650;6.888;2024-03-07T13:16:59;100153.03;;;6.72;48.84
81961;BME280;71462;50.650;6.888;2024-03-07T13:19:28;100152.72;;;6.68;48.49
81961;BME280;71462;50.650;6.888;2024-03-07T13:21:56;100148.22;;;6.90;49.04
81961;BME280;71462;50.650;6.888;2024-03-07T13:24:25;100153.41;;;7.29;49.48
81961;BME280;71462;50.650;6.888;2024-03-07T13:26:54;100142.59;;;6.87;48.69
81961;BME280;71462;50.650;6.888;2024-03-07T13:29:22;100144.63;;;7.02;48.87
81961;BME280;71462;50.650;6.888;2024-03-07T13:31:53;100146.25;;;7.30;49.01
81961;BME280;71462;50.650;6.888;2024-03-07T13:34:24;100139.88;;;7.31;49.42